Time;durP1;ratioP1;P1;durP2;ratioP2;P2;SDS_P1;SDS_P2;PMS_P1;PMS_P2;Temp;Humidity;BMP_temperature;BMP_pressure;BME280_temperature;BME280_humidity;BME280_pressure;Samples;Min_cycle;Max_cycle;Signal;HPM_P1;HPM_P2
2022/02/10 00:17:34;;;;;;;23.85;9.60;;;;;;;1.61;100.00;100221.42;1653467;86;21068;-70
2022/02/10 00:20:20;;;;;;;28.02;10.70;;;;;;;1.61;100.00;100221.42;1673698;84;21520;-70
2022/02/10 00:26:03;;;;;;;24.85;10.55;;;;;;;1.58;100.00;100212.34;1682062;85;21142;-70
2022/02/10 00:36:10;;;;;;;29.65;12.00;;;;;;;1.41;100.00;100185.95;1682043;85;21051;-72
2022/02/10 00:38:37;;;;;;;26.05;11.85;;;;;;;1.42;100.00;100187.66;1681493;85;21108;-70
2022/02/10 00:41:02;;;;;;;26.62;11.80;;;;;;;1.38;100.00;100185.06;1681426;85;22399;-69
2022/02/10 00:43:29;;;;;;;27.22;12.55;;;;;;;1.40;100.00;100191.12;1681859;85;21127;-69
2022/02/10 00:45:55;;;;;;;29.23;12.63;;;;;;;1.40;100.00;100191.12;1682047;85;21127;-69
2022/02/10 00:48:22;;;;;;;33.38;12.78;;;;;;;1.41;100.00;100176.86;1681749;85;21094;-70
2022/02/10 00:50:51;;;;;;;32.03;13.88;;;;;;;1.41;100.00;100182.05;1682023;85;21074;-72
2022/02/10 00:53:31;;;;;;;28.32;12.20;;;;;;;1.40;100.00;100173.85;1682100;85;21588;-70
2022/02/10 00:55:52;;;;;;;31.25;13.93;;;;;;;1.40;100.00;100173.85;1680237;83;21662;-69
2022/02/10 00:58:27;;;;;;;34.23;13.75;;;;;;;1.41;100.00;100170.38;1681879;85;21083;-70
2022/02/10 01:31:07;;;;;;;30.80;14.70;;;;;;;1.59;100.00;100137.52;1656959;86;21593;-70
2022/02/10 01:33:35;;;;;;;27.87;14.90;;;;;;;1.63;100.00;100136.63;1655791;86;21141;-69
2022/02/10 01:36:02;;;;;;;26.65;13.95;;;;;;;1.64;100.00;100129.29;1655571;86;21042;-69
2022/02/10 01:38:31;;;;;;;33.10;14.85;;;;;;;1.63;100.00;100136.63;1655842;86;21092;-71
2022/02/10 02:05:42;;;;;;;27.67;15.28;;;;;;;2.07;100.00;100111.02;1683513;85;21071;-70
2022/02/10 02:08:07;;;;;;;30.15;15.13;;;;;;;2.12;100.00;100117.09;1682856;85;21113;-72
2022/02/10 02:10:33;;;;;;;29.37;15.75;;;;;;;2.20;100.00;100114.02;1683512;83;21090;-70
2022/02/10 02:13:03;;;;;;;27.75;14.00;;;;;;;2.20;100.00;100114.02;1686467;84;21220;-70
2022/02/10 02:15:31;;;;;;;29.25;14.15;;;;;;;2.25;100.00;100107.06;1693003;83;21070;-70
2022/02/10 02:17:58;;;;;;;28.60;14.98;;;;;;;2.29;100.00;100107.48;1693042;84;21024;-71
2022/02/10 02:20:25;;;;;;;30.00;15.68;;;;;;;2.29;100.00;100107.48;1693136;83;21507;-69
2022/02/10 02:22:51;;;;;;;27.07;14.80;;;;;;;2.32;100.00;100100.11;1683693;84;21072;-70
2022/02/10 02:25:18;;;;;;;28.60;15.32;;;;;;;2.35;100.00;100107.91;1683478;84;21554;-69
2022/02/10 02:27:47;;;;;;;26.40;14.80;;;;;;;2.38;100.00;100114.39;1683563;84;21076;-69
2022/02/10 02:31:04;;;;;;;30.90;15.23;;;;;;;2.40;100.00;100119.16;1683248;84;21053;-70
2022/02/10 02:36:17;;;;;;;28.95;15.38;;;;;;;2.46;100.00;100111.75;1673121;85;21068;-69
2022/02/10 03:08:42;;;;;;;21.82;13.18;;;;;;;2.78;100.00;100109.43;1663705;84;21018;-70
2022/02/10 03:11:08;;;;;;;23.57;14.33;;;;;;;2.77;100.00;100097.31;1670617;84;21104;-70
2022/02/10 03:13:37;;;;;;;27.25;15.10;;;;;;;2.79;100.00;100100.78;1688071;84;21059;-70
2022/02/10 04:00:19;;;;;;;24.65;14.90;;;;;;;3.22;100.00;100100.47;1683869;85;21201;-69
2022/02/10 04:15:21;;;;;;;27.93;16.80;;;;;;;3.35;100.00;100089.95;1674851;84;21095;-70
2022/02/10 04:18:01;;;;;;;29.37;17.30;;;;;;;3.40;100.00;100086.45;1658585;86;21143;-70
2022/02/10 04:23:14;;;;;;;31.73;17.07;;;;;;;3.46;100.00;100088.56;1661033;86;21068;-69
2022/02/10 04:30:58;;;;;;;30.32;17.07;;;;;;;3.57;100.00;100084.58;1660674;86;21062;-69
2022/02/10 04:55:12;;;;;;;28.42;18.42;;;;;;;3.90;100.00;100095.09;1633886;86;21100;-71
2022/02/10 05:16:16;;;;;;;33.80;18.07;;;;;;;4.12;100.00;100111.82;1681134;85;21064;-71
2022/02/10 05:34:48;;;;;;;30.90;17.80;;;;;;;4.26;100.00;100132.52;1653246;86;21065;-68
2022/02/10 05:37:07;;;;;;;31.33;19.37;;;;;;;4.26;100.00;100133.38;1654028;86;21120;-69
2022/02/10 05:39:38;;;;;;;33.78;18.30;;;;;;;4.28;100.00;100130.73;1655564;86;21101;-69
2022/02/10 05:58:03;;;;;;;33.95;20.60;;;;;;;4.21;100.00;100148.22;1671033;84;21148;-70
2022/02/10 06:52:12;;;;;;;36.88;20.37;;;;;;;4.29;100.00;100185.47;1683087;84;21441;-70
2022/02/10 07:03:10;;;;;;;38.75;21.70;;;;;;;4.31;100.00;100191.54;1668805;85;21648;-68
2022/02/10 07:14:16;;;;;;;43.27;21.90;;;;;;;4.41;100.00;100184.48;1801459;79;25559;-72
2022/02/10 07:47:18;;;;;;;28.67;17.57;;;;;;;4.94;100.00;100202.98;1647010;87;21570;-72
2022/02/10 07:49:53;;;;;;;;;;;;;;;4.94;100.00;100189.94;1646238;87;21743;-70
2022/02/10 07:57:47;;;;;;;25.48;16.73;;;;;;;5.21;100.00;100201.31;1647186;87;21073;-71
2022/02/10 08:57:08;;;;;;;17.48;11.65;;;;;;;6.15;100.00;100239.55;1628901;87;21150;-70
2022/02/10 09:07:47;;;;;;;19.40;11.63;;;;;;;6.34;100.00;100235.70;1628883;88;21295;-68
2022/02/10 09:12:52;;;;;;;19.65;11.80;;;;;;;6.25;100.00;100239.79;1625365;86;21075;-69
2022/02/10 09:27:12;;;;;;;18.87;11.85;;;;;;;6.12;100.00;100239.58;1616364;88;21116;-70
2022/02/10 10:00:30;;;;;;;20.32;13.53;;;;;;;5.69;100.00;100255.48;1646224;85;21558;-69
2022/02/10 10:02:58;;;;;;;;;;;;;;;5.67;100.00;100248.97;1644245;87;21098;-70
2022/02/10 10:05:33;;;;;;;26.40;15.05;;;;;;;5.60;100.00;100251.25;1644754;87;20202;-71
2022/02/10 10:08:15;;;;;;;21.68;14.15;;;;;;;5.54;100.00;100248.72;1645462;87;21768;-71
2022/02/10 10:16:20;;;;;;;24.55;14.38;;;;;;;5.49;100.00;100246.63;1646304;87;21089;-71
2022/02/10 10:52:24;;;;;;;19.85;12.60;;;;;;;5.97;100.00;100223.72;1625331;86;21080;-70
2022/02/10 10:54:53;;;;;;;20.90;12.95;;;;;;;6.00;100.00;100217.97;1644546;86;21951;-72
2022/02/10 10:57:20;;;;;;;21.50;11.83;;;;;;;6.11;100.00;100216.95;1647231;86;21026;-71
2022/02/10 11:00:11;;;;;;;17.25;11.90;;;;;;;6.21;100.00;100218.50;1651591;86;21061;-71
2022/02/10 11:39:38;;;;;;;10.78;7.47;;;;;;;6.19;100.00;100191.50;1646437;87;21098;-71
2022/02/10 11:42:19;;;;;;;21.52;7.83;;;;;;;6.22;100.00;100207.16;1644608;87;21707;-71
2022/02/10 14:14:53;;;;;;;9.85;3.70;;;;;;;5.81;100.00;100245.28;1678828;85;21081;-71
2022/02/10 14:17:27;;;;;;;8.58;3.52;;;;;;;5.83;100.00;100245.67;1677493;84;21133;-72
2022/02/10 14:19:58;;;;;;;9.88;3.00;;;;;;;5.86;100.00;100242.14;1676327;84;21088;-72
2022/02/10 14:27:29;;;;;;;6.15;2.92;;;;;;;5.85;100.00;100246.97;1679105;84;22388;-71
2022/02/10 14:29:55;;;;;;;9.00;2.67;;;;;;;5.77;99.72;100247.52;1679221;85;21141;-72
2022/02/10 14:32:27;;;;;;;7.83;3.05;;;;;;;5.74;100.00;100251.50;1678911;85;21038;-72
2022/02/10 14:34:53;;;;;;;4.08;2.90;;;;;;;5.72;100.00;100253.27;1686528;84;22181;-72
2022/02/10 14:42:59;;;;;;;8.00;3.15;;;;;;;5.66;100.00;100247.25;1661116;84;21125;-73
2022/02/10 15:16:23;;;;;;;9.60;5.30;;;;;;;4.57;100.00;100270.80;1667782;85;21169;-75
2022/02/10 15:50:08;;;;;;;13.50;6.97;;;;;;;3.96;100.00;100287.00;1726276;81;20176;-72
2022/02/10 16:12:20;;;;;;;20.52;9.83;;;;;;;3.66;100.00;100290.24;1649261;84;21053;-73
2022/02/10 16:19:10;;;;;;;18.15;9.78;;;;;;;3.52;100.00;100281.21;1677459;83;21079;-73
2022/02/10 16:21:44;;;;;;;20.62;11.20;;;;;;;3.54;100.00;100291.19;1724678;83;21115;-74
2022/02/10 16:24:20;;;;;;;;;;;;;;;3.58;100.00;100287.66;1721800;83;21089;-74
2022/02/10 16:26:56;;;;;;;24.63;12.33;;;;;;;3.48;100.00;100291.21;1705886;84;20220;-72
2022/02/10 16:29:25;;;;;;;33.95;14.30;;;;;;;3.42;100.00;100291.67;1706205;84;21372;-73
2022/02/10 16:31:51;;;;;;;29.12;13.25;;;;;;;3.46;100.00;100299.91;1707035;84;21156;-73
2022/02/10 16:34:18;;;;;;;43.20;19.02;;;;;;;3.38;100.00;100299.06;1697782;84;21122;-74
2022/02/10 16:36:46;;;;;;;26.15;13.22;;;;;;;3.48;100.00;100302.07;1696487;84;21106;-73
2022/02/10 16:39:16;;;;;;;29.23;15.32;;;;;;;3.38;100.00;100302.53;1696609;84;21070;-73
2022/02/10 16:41:44;;;;;;;34.70;17.57;;;;;;;3.33;100.00;100305.16;1703676;83;21644;-73
2022/02/10 16:44:11;;;;;;;34.23;17.15;;;;;;;3.30;100.00;100307.78;1705867;83;21140;-73
2022/02/10 16:46:37;;;;;;;51.65;24.43;;;;;;;3.21;100.00;100303.06;1707679;83;22205;-73
2022/02/10 16:49:05;;;;;;;45.38;22.65;;;;;;;3.19;100.00;100308.70;1707037;82;21625;-73
2022/02/10 16:51:32;;;;;;;38.50;20.60;;;;;;;3.13;100.00;100308.30;1708598;82;21049;-73
2022/02/10 16:54:06;;;;;;;42.38;22.77;;;;;;;3.11;100.00;100300.94;1708891;83;21406;-73
2022/02/10 16:56:35;;;;;;;36.13;19.00;;;;;;;3.10;100.00;100312.20;1708166;83;20991;-73
2022/02/10 16:59:11;;;;;;;44.13;24.92;;;;;;;2.99;100.00;100308.35;1708188;83;21174;-73
2022/02/10 17:17:58;;;;;;;38.83;23.67;;;;;;;2.91;100.00;100314.86;1696749;84;21080;-72
2022/02/10 17:20:25;;;;;;;34.75;18.92;;;;;;;2.94;100.00;100316.58;1698510;83;21100;-73
2022/02/10 17:25:33;;;;;;;40.50;23.07;;;;;;;3.00;100.00;100304.87;1713311;82;21156;-71
2022/02/10 17:28:00;;;;;;;33.35;19.25;;;;;;;3.02;100.00;100297.92;1715673;83;21059;-73
2022/02/10 17:35:45;;;;;;;38.28;21.52;;;;;;;3.09;100.00;100303.53;1716692;82;21077;-70
2022/02/10 17:51:29;;;;;;;46.65;24.63;;;;;;;3.09;100.00;100310.04;1720028;82;21158;-70
2022/02/10 17:53:57;;;;;;;47.03;24.85;;;;;;;3.17;100.00;100310.44;1712665;82;21081;-70
2022/02/10 17:56:25;;;;;;;39.67;21.80;;;;;;;3.32;100.00;100306.48;1722484;82;27273;-70
2022/02/10 17:58:52;;;;;;;46.60;26.02;;;;;;;3.32;100.00;100306.48;1716071;82;21133;-72
2022/02/10 18:01:20;;;;;;;45.28;23.98;;;;;;;3.46;100.00;100308.58;1716298;82;21054;-70
2022/02/10 18:03:47;;;;;;;36.90;22.17;;;;;;;3.53;100.00;100299.86;1723188;82;22141;-70
2022/02/10 18:06:31;;;;;;;47.53;27.58;;;;;;;3.50;100.00;100294.67;1698823;82;21773;-70
2022/02/10 18:16:49;;;;;;;39.00;22.05;;;;;;;3.61;100.00;100291.13;1608692;87;21216;-68
2022/02/10 18:19:22;;;;;;;45.17;26.10;;;;;;;3.57;100.00;100298.97;1689007;82;21013;-70
2022/02/10 18:27:24;;;;;;;56.10;29.77;;;;;;;3.47;100.00;100298.58;1715205;82;21112;-69
2022/02/10 19:10:07;;;;;;;55.40;28.55;;;;;;;3.64;100.00;100301.55;1716825;82;21145;-69
2022/02/10 19:12:47;;;;;;;42.48;24.43;;;;;;;3.68;100.00;100301.94;1715688;82;21119;-69
2022/02/10 19:17:43;;;;;;;47.88;27.93;;;;;;;3.68;100.00;100292.81;1731552;82;21076;-70
2022/02/10 19:20:11;;;;;;;47.23;25.43;;;;;;;3.77;100.00;100285.83;1719790;82;21057;-69
2022/02/10 19:22:43;;;;;;;50.35;29.90;;;;;;;3.66;100.00;100281.54;1716064;83;21161;-69
2022/02/10 19:25:12;;;;;;;43.25;25.70;;;;;;;3.60;100.00;100288.11;1717551;82;21550;-69
2022/02/10 19:32:17;;;;;;;46.73;27.27;;;;;;;3.53;100.00;100273.81;1795564;79;24140;-70
2022/02/10 19:34:43;;;;;;;54.53;30.45;;;;;;;3.37;100.00;100277.38;1754000;81;21069;-69
2022/02/10 19:37:10;;;;;;;56.33;30.92;;;;;;;3.27;100.00;100280.92;1755473;81;21114;-69
2022/02/10 19:39:42;;;;;;;66.57;34.43;;;;;;;3.14;100.00;100286.16;1755854;81;20973;-69
2022/02/10 19:42:08;;;;;;;78.10;39.88;;;;;;;2.99;100.00;100286.23;1755745;81;21005;-69
2022/02/10 19:44:35;;;;;;;75.45;39.25;;;;;;;2.86;100.00;100289.30;1755378;81;21109;-69
2022/02/10 19:47:03;;;;;;;74.50;38.38;;;;;;;2.75;100.00;100291.50;1755776;81;20993;-69
2022/02/10 19:49:31;;;;;;;67.30;36.40;;;;;;;2.64;100.00;100289.78;1750000;81;21530;-69
2022/02/10 19:51:57;;;;;;;65.80;35.80;;;;;;;2.62;100.00;100286.34;1746963;81;21033;-68
2022/02/10 19:54:28;;;;;;;85.95;43.75;;;;;;;2.55;100.00;100287.20;1747188;82;21469;-69
2022/02/10 19:56:55;;;;;;;66.60;37.35;;;;;;;2.51;100.00;100282.90;1747843;81;21096;-69
2022/02/10 19:59:29;;;;;;;76.22;42.83;;;;;;;2.45;100.00;100280.30;1749326;82;20967;-68
2022/02/10 20:01:54;;;;;;;109.15;56.10;;;;;;;2.40;100.00;100275.11;1750537;82;21046;-69
2022/02/10 20:04:23;;;;;;;117.57;56.40;;;;;;;2.37;100.00;100276.83;1750716;82;21041;-69
2022/02/10 20:06:50;;;;;;;126.53;66.02;;;;;;;2.19;100.00;100279.89;1749930;81;21531;-68
2022/02/10 20:09:17;;;;;;;110.63;59.18;;;;;;;2.19;100.00;100279.89;1747229;82;21755;-68
2022/02/10 20:11:47;;;;;;;116.40;60.17;;;;;;;2.10;100.00;100272.10;1747299;81;21101;-68
2022/02/10 20:14:21;;;;;;;118.85;61.28;;;;;;;2.00;100.00;100276.44;1727191;82;21108;-68
2022/02/10 20:16:49;;;;;;;86.42;43.28;;;;;;;1.95;100.00;100277.28;1717380;83;21021;-68
2022/02/10 20:19:15;;;;;;;115.37;49.60;;;;;;;1.87;100.00;100273.39;1725350;82;21017;-68
2022/02/10 20:21:45;;;;;;;100.55;45.45;;;;;;;1.80;100.00;100268.63;1747107;82;21022;-68
2022/02/10 20:24:12;;;;;;;111.30;48.23;;;;;;;1.76;100.00;100269.48;1747085;82;21049;-67
2022/02/10 20:26:39;;;;;;;113.03;49.45;;;;;;;1.70;100.00;100279.84;1747434;82;21231;-66
2022/02/10 20:29:07;;;;;;;115.12;49.50;;;;;;;1.65;100.00;100276.39;1746812;82;21514;-67
2022/02/10 20:31:39;;;;;;;115.92;51.60;;;;;;;1.53;100.00;100261.66;1747756;82;21038;-66
2022/02/10 20:34:09;;;;;;;153.25;66.80;;;;;;;1.53;100.00;100261.66;1747821;82;21589;-67
2022/02/10 20:36:37;;;;;;;140.68;61.37;;;;;;;1.52;100.00;100265.53;1747963;82;21206;-67
2022/02/10 20:39:05;;;;;;;144.40;61.95;;;;;;;1.46;100.00;100272.89;1747988;82;21118;-67
2022/02/10 20:41:34;;;;;;;155.72;68.42;;;;;;;1.42;100.00;100266.81;1747972;82;21037;-69
2022/02/10 20:44:01;;;;;;;127.38;60.38;;;;;;;1.42;100.00;100266.81;1747370;82;21046;-67
2022/02/10 20:46:30;;;;;;;159.43;73.28;;;;;;;1.35;100.00;100258.58;1747196;82;21040;-67
2022/02/10 20:49:01;;;;;;;138.12;67.00;;;;;;;1.33;100.00;100256.41;1747537;82;21553;-67
2022/02/10 20:51:27;;;;;;;111.55;52.55;;;;;;;1.30;100.00;100260.31;1747309;81;21139;-67
2022/02/10 20:53:53;;;;;;;119.35;57.27;;;;;;;1.28;100.00;100258.14;1747412;82;21736;-67
2022/02/10 20:56:21;;;;;;;98.50;48.58;;;;;;;1.17;100.00;100246.42;1747315;82;21557;-68
2022/02/10 20:58:54;;;;;;;108.15;55.08;;;;;;;1.20;100.00;100257.27;1747210;82;21056;-68
2022/02/10 21:01:18;;;;;;;96.40;47.95;;;;;;;1.18;100.00;100257.69;1746901;82;21077;-67
2022/02/10 21:03:44;;;;;;;93.20;44.10;;;;;;;1.18;100.00;100249.91;1734924;82;21082;-67
2022/02/10 21:06:34;;;;;;;103.97;52.35;;;;;;;1.16;100.00;100252.48;1717250;83;22178;-68
2022/02/10 21:08:58;;;;;;;90.22;45.10;;;;;;;1.15;100.00;100249.88;1714298;83;21056;-68
2022/02/10 21:11:24;;;;;;;93.52;47.13;;;;;;;1.12;100.00;100253.77;1716968;83;21489;-67
2022/02/10 21:13:49;;;;;;;97.60;46.65;;;;;;;1.10;100.00;100250.30;1743677;82;21060;-67
2022/02/10 21:16:36;;;;;;;80.42;39.53;;;;;;;1.11;100.00;100246.86;1740194;82;21121;-67
2022/02/10 21:19:03;;;;;;;89.45;43.00;;;;;;;1.08;100.00;100253.31;1739892;82;21047;-67
2022/02/10 21:21:31;;;;;;;82.22;42.10;;;;;;;1.09;100.00;100251.17;1739911;82;21080;-68
2022/02/10 21:24:06;;;;;;;60.33;32.70;;;;;;;1.07;100.00;100256.78;1739969;82;21039;-68
2022/02/10 21:26:33;;;;;;;78.15;40.08;;;;;;;1.04;100.00;100258.50;1739662;82;21035;-67
2022/02/10 21:29:03;;;;;;;87.35;42.17;;;;;;;1.03;100.00;100255.89;1739707;82;21960;-67
2022/02/10 21:31:30;;;;;;;65.30;33.45;;;;;;;1.01;100.00;100248.13;1739906;82;21587;-67
2022/02/10 21:34:21;;;;;;;86.05;42.20;;;;;;;1.04;100.00;100242.08;1739836;82;21085;-67
2022/02/10 21:45:25;;;;;;;55.33;29.98;;;;;;;1.08;100.00;100232.56;1739657;82;21095;-68
2022/02/10 21:58:28;;;;;;;72.95;37.03;;;;;;;1.33;100.00;100218.79;1710010;83;21078;-68
2022/02/10 22:00:45;;;;;;;67.40;34.45;;;;;;;1.37;100.00;100219.67;1709960;83;21059;-68
2022/02/10 22:19:17;;;;;;;98.45;45.00;;;;;;;1.45;100.00;100199.37;1690668;84;21069;-67
2022/02/10 22:24:15;;;;;;;86.32;42.45;;;;;;;1.50;100.00;100205.00;1686329;85;21569;-69
2022/02/10 22:26:42;;;;;;;104.90;48.95;;;;;;;1.51;100.00;100192.45;1686778;84;21561;-69
2022/02/10 22:29:15;;;;;;;98.80;45.95;;;;;;;1.54;100.00;100196.33;1686453;85;21041;-69
2022/02/10 22:32:02;;;;;;;77.42;37.73;;;;;;;1.54;100.00;100198.92;1686777;83;21566;-70
2022/02/10 22:34:34;;;;;;;89.10;44.60;;;;;;;1.56;100.00;100201.95;1686161;84;21818;-68
2022/02/10 22:36:58;;;;;;;87.27;41.77;;;;;;;1.58;100.00;100186.39;1686678;84;21526;-68
2022/02/10 22:39:25;;;;;;;95.57;45.88;;;;;;;1.59;100.00;100190.73;1686715;84;21068;-69
2022/02/10 22:41:52;;;;;;;109.43;45.37;;;;;;;1.59;100.00;100195.48;1686757;85;21137;-69
2022/02/10 22:44:18;;;;;;;89.97;43.38;;;;;;;1.61;100.00;100193.76;1686665;84;21145;-68
2022/02/10 22:46:46;;;;;;;100.58;47.23;;;;;;;1.61;100.00;100190.27;1686840;84;21166;-67
2022/02/10 22:49:13;;;;;;;94.75;44.80;;;;;;;1.66;100.00;100194.62;1686424;84;21102;-67
2022/02/10 22:51:40;;;;;;;71.50;36.85;;;;;;;1.68;100.00;100199.83;1686812;84;21128;-68
2022/02/10 22:54:07;;;;;;;90.38;41.98;;;;;;;1.70;100.00;100191.57;1686422;84;21097;-68
2022/02/10 22:56:33;;;;;;;74.17;38.90;;;;;;;1.72;100.00;100188.55;1686555;85;21025;-67
2022/02/10 22:59:03;;;;;;;90.92;43.10;;;;;;;1.72;100.00;100196.34;1686868;84;21213;-67
2022/02/10 23:01:32;;;;;;;91.37;42.98;;;;;;;1.74;100.00;100199.80;1686180;84;21525;-67
2022/02/10 23:03:58;;;;;;;79.82;38.15;;;;;;;1.76;100.00;100197.22;1687831;84;21046;-68
2022/02/10 23:06:25;;;;;;;94.05;44.25;;;;;;;1.76;100.00;100194.62;1714919;82;21446;-67
2022/02/10 23:08:52;;;;;;;93.58;39.35;;;;;;;1.79;100.00;100186.81;1732016;82;21061;-66
2022/02/10 23:11:28;;;;;;;88.05;41.02;;;;;;;1.78;100.00;100191.16;1731824;82;21155;-67
2022/02/10 23:13:58;;;;;;;97.12;44.63;;;;;;;1.78;100.00;100193.75;1698617;82;21063;-68
2022/02/10 23:16:27;;;;;;;81.82;37.50;;;;;;;1.81;100.00;100187.25;1683336;84;21106;-68
2022/02/10 23:18:55;;;;;;;100.95;43.58;;;;;;;1.81;100.00;100198.94;1683492;84;21118;-67
2022/02/10 23:21:22;;;;;;;93.72;43.05;;;;;;;1.83;100.00;100193.31;1684119;85;21133;-67
2022/02/10 23:23:50;;;;;;;87.62;41.02;;;;;;;1.84;100.00;100190.27;1683513;84;21266;-68
2022/02/10 23:26:19;;;;;;;88.22;44.10;;;;;;;1.83;100.00;100190.71;1683426;84;21114;-66
2022/02/10 23:28:52;;;;;;;83.05;40.45;;;;;;;1.83;100.00;100186.81;1683622;85;21043;-66
2022/02/10 23:31:22;;;;;;;75.90;40.67;;;;;;;1.82;100.00;100179.91;1683746;85;21232;-66
2022/02/10 23:33:52;;;;;;;83.03;42.55;;;;;;;1.79;100.00;100175.99;1683488;84;21107;-68
2022/02/10 23:37:00;;;;;;;77.78;39.80;;;;;;;1.79;100.00;100175.99;1684003;84;22125;-66
2022/02/10 23:39:05;;;;;;;81.92;41.55;;;;;;;1.76;100.00;100178.60;1670287;84;21051;-67
2022/02/10 23:44:15;;;;;;;71.53;38.10;;;;;;;1.72;100.00;100172.11;1683525;85;21134;-66
2022/02/10 23:46:41;;;;;;;82.75;42.73;;;;;;;1.70;100.00;100169.50;1683789;84;21079;-67
2022/02/10 23:49:08;;;;;;;78.57;40.03;;;;;;;1.73;100.00;100166.93;1683335;85;21111;-66
2022/02/10 23:51:42;;;;;;;74.70;39.40;;;;;;;1.73;100.00;100159.14;1683540;85;21079;-66
2022/02/10 23:54:03;;;;;;;90.03;44.03;;;;;;;1.76;100.00;100168.66;1683441;84;21139;-66
2022/02/10 23:56:35;;;;;;;81.50;41.53;;;;;;;1.79;100.00;100161.70;1683806;85;21051;-66
2022/02/10 23:59:08;;;;;;;87.37;44.27;;;;;;;1.79;100.00;100155.66;1683467;84;21020;-66
